.
WxDataArchive / Data Records for 2011-11-23
2011-11-22 November 2011 2011-11-24

Data Records for Wednesday, 23 November 2011

Time	Temp	Chill	HIndex	Humid	Dewpt	 Wind 	HiWind	WindDir	Rain 	Barom 
-----	----	-----	------	-----	-----	------	------	-------	-----	----- 
00:00	37.6	37.6	37.6	94	36.0	3	9	315	0.00	29.838 
00:05	37.5	37.5	37.5	94	35.9	3	7	270	0.00	29.838 
00:10	37.5	37.5	37.5	94	35.9	1	4	292	0.00	29.838 
00:15	37.5	37.5	37.5	94	35.9	2	5	292	0.00	29.849 
00:20	37.5	37.5	37.5	93	35.7	1	4	292	0.00	29.849 
00:25	37.3	37.3	37.3	93	35.5	2	6	270	0.00	29.849 
00:30	37.3	37.3	37.3	93	35.5	2	6	270	0.00	29.852 
00:35	37.3	37.3	37.3	93	35.5	1	4	292	0.00	29.852 
00:40	37.3	37.3	37.3	93	35.5	1	4	315	0.00	29.852 
00:45	37.3	37.3	37.3	93	35.5	1	3	315	0.00	29.859 
00:50	37.5	37.5	37.5	93	35.7	1	3	315	0.00	29.859 
00:55	37.5	37.5	37.5	93	35.7	1	4	315	0.00	29.859 
01:00	37.6	37.6	37.6	93	35.8	1	5	315	0.00	29.865 
01:05	37.8	37.8	37.8	93	36.0	1	3	292	0.00	29.865 
01:10	37.9	37.9	37.9	93	36.1	1	5	292	0.00	29.865 
01:15	38.2	38.2	38.2	94	36.6	1	5	292	0.01	29.869 
01:20	38.5	38.5	38.5	94	36.9	2	4	315	0.00	29.869 
01:25	38.8	38.8	38.8	94	37.2	1	4	315	0.00	29.869 
01:30	38.9	38.9	38.9	94	37.3	1	5	315	0.00	29.873 
01:35	39.1	39.1	39.1	94	37.5	1	4	315	0.00	29.873 
01:40	39.2	39.2	39.2	94	37.6	1	9	270	0.01	29.873 
01:45	39.3	39.3	39.3	94	37.7	1	6	248	0.00	29.877 
01:50	39.5	39.5	39.5	94	37.9	1	9	292	0.00	29.877 
01:55	39.6	39.6	39.6	94	38.0	1	5	315	0.00	29.877 
02:00	39.6	39.6	39.6	94	38.0	2	5	338	0.00	29.882 
02:05	39.6	39.6	39.6	93	37.7	2	11	270	0.00	29.882 
02:10	39.5	39.5	39.5	93	37.6	2	5	338	0.00	29.882 
02:15	39.5	39.5	39.5	93	37.6	2	9	315	0.00	29.897 
02:20	39.5	39.5	39.5	93	37.6	2	4	292	0.00	29.897 
02:25	39.5	39.5	39.5	93	37.6	2	4	315	0.00	29.897 
02:30	39.3	36.5	39.3	93	37.4	4	9	292	0.00	29.907 
02:35	39.3	39.3	39.3	93	37.4	1	3	338	0.00	29.907 
02:40	39.2	39.2	39.2	93	37.3	2	5	22	0.00	29.907 
02:45	39.2	39.2	39.2	93	37.3	3	7	270	0.00	29.924 
02:50	39.1	39.1	39.1	93	37.2	3	6	270	0.00	29.924 
02:55	38.9	38.9	38.9	93	37.1	2	7	270	0.00	29.924 
03:00	38.8	38.8	38.8	92	36.7	3	10	292	0.00	29.933 
03:05	38.6	38.6	38.6	92	36.5	2	7	270	0.00	29.933 
03:10	38.5	38.5	38.5	92	36.4	2	9	315	0.00	29.933 
03:15	38.5	38.5	38.5	92	36.4	3	13	270	0.00	29.943 
03:20	38.3	38.3	38.3	92	36.2	2	10	270	0.00	29.943 
03:25	38.3	38.3	38.3	92	36.2	2	6	292	0.00	29.943 
03:30	38.3	38.3	38.3	92	36.2	2	4	338	0.00	29.949 
03:35	38.3	38.3	38.3	92	36.2	2	4	270	0.00	29.949 
03:40	38.3	38.3	38.3	92	36.2	2	4	292	0.00	29.949 
03:45	38.2	38.2	38.2	92	36.1	2	4	292	0.00	29.957 
03:50	38.2	38.2	38.2	92	36.1	1	5	315	0.00	29.957 
03:55	38.2	38.2	38.2	92	36.1	2	5	292	0.00	29.957 
04:00	38.2	38.2	38.2	92	36.1	2	6	338	0.00	29.964 
04:05	38.0	38.0	38.0	92	35.9	1	4	270	0.00	29.964 
04:10	38.0	38.0	38.0	91	35.6	2	5	270	0.00	29.964 
04:15	38.0	38.0	38.0	91	35.6	1	4	270	0.00	29.972 
04:20	37.9	37.9	37.9	91	35.5	2	7	292	0.00	29.972 
04:25	37.9	37.9	37.9	91	35.5	2	7	292	0.00	29.972 
04:30	37.9	37.9	37.9	91	35.5	1	6	292	0.00	29.980 
04:35	37.9	37.9	37.9	91	35.5	1	6	270	0.00	29.980 
04:40	37.9	37.9	37.9	91	35.5	2	7	315	0.00	29.980 
04:45	37.8	37.8	37.8	91	35.4	2	6	270	0.00	29.993 
04:50	37.8	37.8	37.8	91	35.4	2	5	338	0.00	29.993 
04:55	37.6	37.6	37.6	91	35.2	2	6	292	0.00	29.993 
05:00	37.5	37.5	37.5	90	34.8	2	5	270	0.00	30.004 
05:05	37.5	37.5	37.5	90	34.8	2	6	270	0.00	30.004 
05:10	37.3	37.3	37.3	90	34.6	2	7	338	0.00	30.004 
05:15	37.2	37.2	37.2	90	34.5	2	4	315	0.00	30.011 
05:20	37.2	37.2	37.2	90	34.5	1	4	315	0.00	30.011 
05:25	37.0	37.0	37.0	90	34.3	2	6	270	0.00	30.011 
05:30	36.9	36.9	36.9	90	34.2	1	6	338	0.00	30.025 
05:35	36.8	36.8	36.8	90	34.1	1	6	292	0.00	30.025 
05:40	36.6	36.6	36.6	90	33.9	1	4	292	0.00	30.025 
05:45	36.6	36.6	36.6	90	33.9	1	3	315	0.00	30.027 
05:50	36.5	36.5	36.5	90	33.9	1	5	315	0.00	30.027 
05:55	36.3	36.3	36.3	90	33.7	1	3	292	0.00	30.027 
06:00	36.2	36.2	36.2	90	33.6	1	3	292	0.00	30.042 
06:05	36.0	36.0	36.0	90	33.4	0	1	292	0.00	30.042 
06:10	36.0	36.0	36.0	90	33.4	0	3	292	0.00	30.042 
06:15	35.9	35.9	35.9	90	33.3	1	4	338	0.00	30.053 
06:20	35.9	35.9	35.9	90	33.3	1	3	292	0.00	30.053 
06:25	35.8	35.8	35.8	90	33.2	1	3	315	0.00	30.053 
06:30	35.8	35.8	35.8	90	33.2	1	3	315	0.00	30.059 
06:35	35.6	35.6	35.6	90	33.0	0	2	315	0.00	30.059 
06:40	35.5	35.5	35.5	90	32.9	1	3	315	0.00	30.059 
06:45	35.3	35.3	35.3	90	32.7	1	3	315	0.00	30.063 
06:50	35.2	35.2	35.2	90	32.6	0	2	315	0.00	30.063 
06:55	35.0	35.0	35.0	90	32.4	1	3	315	0.00	30.063 
07:00	35.0	35.0	35.0	90	32.4	1	3	292	0.00	30.073 
07:05	34.9	34.9	34.9	90	32.3	1	3	338	0.00	30.073 
07:10	34.9	34.9	34.9	90	32.3	0	2	338	0.00	30.073 
07:15	34.7	34.7	34.7	90	32.1	1	3	338	0.00	30.078 
07:20	34.6	34.6	34.6	90	32.0	0	2	338	0.00	30.078 
07:25	34.4	34.4	34.4	91	32.0	1	2	338	0.00	30.078 
07:30	34.4	34.4	34.4	91	32.0	0	1	338	0.00	30.081 
07:35	34.3	34.3	34.3	91	32.0	0	1	338	0.00	30.081 
07:40	34.3	34.3	34.3	91	32.0	0	2	338	0.00	30.081 
07:45	34.1	34.1	34.1	91	31.8	0	2	338	0.00	30.094 
07:50	34.1	34.1	34.1	91	31.8	0	1	338	0.00	30.094 
07:55	34.1	34.1	34.1	91	31.8	0	2	338	0.00	30.094 
08:00	34.0	34.0	34.0	91	31.7	0	1	338	0.00	30.099 
08:05	34.0	34.0	34.0	91	31.7	0	1	338	0.00	30.099 
08:10	34.0	34.0	34.0	91	31.7	0	1	338	0.00	30.099 
08:15	34.1	34.1	34.1	91	31.8	0	1	338	0.00	30.108 
08:20	34.3	34.3	34.3	91	32.0	0	2	338	0.00	30.108 
08:25	34.4	34.4	34.4	91	32.0	0	1	338	0.00	30.108 
08:30	34.6	34.6	34.6	91	32.2	0	2	338	0.00	30.117 
08:35	34.7	34.7	34.7	91	32.3	0	2	338	0.00	30.117 
08:40	34.9	34.9	34.9	91	32.5	0	1	338	0.00	30.117 
08:45	35.2	35.2	35.2	91	32.8	0	3	338	0.00	30.129 
08:50	35.3	35.3	35.3	91	32.9	0	1	338	0.00	30.129 
08:55	35.6	35.6	35.6	90	33.0	0	3	338	0.00	30.129 
09:00	35.8	35.8	35.8	90	33.2	0	3	270	0.00	30.138 
09:05	36.0	36.0	36.0	90	33.4	0	2	270	0.00	30.138 
09:10	36.3	36.3	36.3	89	33.4	0	3	270	0.00	30.138 
09:15	36.8	36.8	36.8	89	33.9	1	3	270	0.00	30.139 
09:20	37.0	37.0	37.0	88	33.8	1	2	270	0.00	30.139 
09:25	37.5	37.5	37.5	88	34.3	0	2	270	0.00	30.139 
09:30	37.9	37.9	37.9	87	34.4	0	2	270	0.00	30.149 
09:35	38.2	38.2	38.2	86	34.4	1	3	270	0.00	30.149 
09:40	38.5	38.5	38.5	85	34.4	0	2	270	0.00	30.149 
09:45	38.9	38.9	38.9	84	34.5	1	3	270	0.00	30.154 
09:50	39.2	39.2	39.2	84	34.8	1	3	270	0.00	30.154 
09:55	39.6	39.6	39.6	83	34.9	1	3	315	0.00	30.154 
10:00	40.1	40.1	40.1	82	35.1	1	3	315	0.00	30.163 
10:05	40.5	40.5	40.5	82	35.4	1	3	315	0.00	30.163 
10:10	40.9	40.9	40.9	81	35.5	1	3	315	0.00	30.163 
10:15	41.2	41.2	41.2	80	35.5	1	3	270	0.00	30.169 
10:20	41.5	41.5	41.5	79	35.5	1	3	248	0.00	30.169 
10:25	41.8	41.8	41.8	78	35.5	1	4	315	0.00	30.169 
10:30	42.2	42.2	42.2	77	35.5	1	4	292	0.00	30.170 
10:35	42.3	42.3	42.3	76	35.3	1	4	315	0.00	30.170 
10:40	42.5	42.5	42.5	75	35.1	2	4	292	0.00	30.170 
10:45	42.8	42.8	42.8	74	35.1	1	3	338	0.00	30.176 
10:50	43.1	43.1	43.1	73	35.0	2	7	338	0.00	30.176 
10:55	43.3	43.3	43.3	71	34.5	2	4	292	0.00	30.176 
11:00	43.8	43.8	43.8	72	35.4	1	2	292	0.00	30.175 
11:05	44.1	44.1	44.1	70	35.0	1	4	338	0.00	30.175 
11:10	44.2	44.2	44.2	69	34.7	1	3	338	0.00	30.175 
11:15	44.5	44.5	44.5	69	35.0	1	3	338	0.00	30.179 
11:20	44.6	44.6	44.6	68	34.7	1	4	270	0.00	30.179 
11:25	45.1	45.1	45.1	68	35.2	1	3	270	0.00	30.179 
11:30	45.5	45.5	45.5	66	34.8	1	3	270	0.00	30.182 
11:35	46.0	46.0	46.0	66	35.3	0	2	270	0.00	30.182 
11:40	46.2	46.2	46.2	64	34.7	1	3	270	0.00	30.182 
11:45	46.4	46.4	46.4	63	34.5	0	2	270	0.00	30.178 
11:50	46.5	46.5	46.5	62	34.2	1	3	270	0.00	30.178 
11:55	46.7	46.7	46.7	63	34.8	1	3	270	0.00	30.178 
12:00	46.8	46.8	46.8	64	35.3	1	3	270	0.00	30.176 
12:05	47.0	47.0	47.0	63	35.1	1	3	270	0.00	30.176 
12:10	47.1	47.1	47.1	62	34.8	1	3	270	0.00	30.176 
12:15	47.4	47.4	47.4	61	34.6	1	3	270	0.00	30.177 
12:20	47.6	47.6	47.6	60	34.4	1	3	270	0.00	30.177 
12:25	47.7	47.7	47.7	57	33.2	2	5	270	0.00	30.177 
12:30	48.0	48.0	48.0	60	34.8	1	4	338	0.00	30.176 
12:35	48.2	48.2	48.2	57	33.7	1	3	338	0.00	30.176 
12:40	48.5	48.5	48.5	58	34.4	1	3	338	0.00	30.176 
12:45	48.8	48.8	48.8	58	34.7	1	4	338	0.00	30.172 
12:50	48.9	48.9	48.9	57	34.3	1	3	338	0.00	30.172 
12:55	48.9	48.9	48.9	58	34.8	1	6	338	0.00	30.172 
13:00	49.1	49.1	49.1	56	34.1	2	4	292	0.00	30.177 
13:05	49.2	49.2	49.2	57	34.6	1	3	270	0.00	30.177 
13:10	49.4	49.4	49.4	58	35.2	1	5	292	0.00	30.177 
13:15	49.5	49.5	49.5	58	35.3	2	4	292	0.00	30.174 
13:20	49.5	49.5	49.5	56	34.5	1	3	292	0.00	30.174 
13:25	49.8	49.8	49.8	56	34.7	1	3	315	0.00	30.174 
13:30	49.9	49.9	49.9	56	34.8	1	4	292	0.00	30.172 
13:35	50.2	50.2	50.2	59	36.4	1	4	315	0.00	30.172 
13:40	50.1	50.1	50.1	58	35.9	1	3	315	0.00	30.172 
13:45	50.2	50.2	50.2	59	36.4	1	4	315	0.00	30.172 
13:50	50.5	50.5	50.5	58	36.3	1	3	270	0.00	30.172 
13:55	50.7	50.7	50.7	63	38.6	1	3	270	0.00	30.172 
14:00	50.7	50.7	50.7	58	36.5	2	3	270	0.00	30.173 
14:05	50.8	50.8	50.8	55	35.2	1	3	270	0.00	30.173 
14:10	51.1	51.1	51.1	58	36.8	1	3	270	0.00	30.173 
14:15	51.0	51.0	51.0	59	37.2	2	4	270	0.00	30.179 
14:20	51.0	51.0	51.0	58	36.7	2	5	248	0.00	30.179 
14:25	51.0	51.0	51.0	59	37.2	0	3	270	0.00	30.179 
14:30	50.8	50.8	50.8	57	36.1	1	5	292	0.00	30.179 
14:35	50.8	50.8	50.8	57	36.1	1	3	292	0.00	30.179 
14:40	50.8	50.8	50.8	57	36.1	1	3	292	0.00	30.179 
14:45	50.8	50.8	50.8	59	37.0	1	3	292	0.00	30.177 
14:50	51.1	51.1	51.1	57	36.4	1	2	292	0.00	30.177 
14:55	51.4	51.4	51.4	57	36.7	1	3	292	0.00	30.177 
15:00	51.4	51.4	51.4	56	36.2	1	3	292	0.00	30.178 
15:05	51.4	51.4	51.4	55	35.8	2	4	292	0.00	30.178 
15:10	51.4	51.4	51.4	54	35.3	1	3	292	0.00	30.178 
15:15	51.6	51.6	51.6	55	36.0	1	3	292	0.00	30.178 
15:20	51.6	51.6	51.6	55	36.0	1	3	292	0.00	30.178 
15:25	51.6	51.6	51.6	55	36.0	1	2	292	0.00	30.178 
15:30	51.7	51.7	51.7	56	36.5	1	3	292	0.00	30.177 
15:35	51.9	51.9	51.9	54	35.8	2	5	248	0.00	30.177 
15:40	51.7	51.7	51.7	55	36.1	1	3	248	0.00	30.177 
15:45	51.6	51.6	51.6	57	36.9	1	3	248	0.00	30.183 
15:50	51.4	51.4	51.4	59	37.6	0	2	248	0.00	30.183 
15:55	51.3	51.3	51.3	58	37.0	1	3	248	0.00	30.183 
16:00	51.3	51.3	51.3	58	37.0	0	1	248	0.00	30.176 
16:05	51.0	51.0	51.0	57	36.3	1	2	248	0.00	30.176 
16:10	51.0	51.0	51.0	58	36.7	0	3	248	0.00	30.176 
16:15	51.0	51.0	51.0	59	37.2	1	3	248	0.00	30.182 
16:20	50.8	50.8	50.8	60	37.4	0	1	248	0.00	30.182 
16:25	50.7	50.7	50.7	58	36.5	0	2	248	0.00	30.182 
16:30	50.5	50.5	50.5	59	36.7	0	1	248	0.00	30.178 
16:35	50.2	50.2	50.2	60	36.9	0	3	248	0.00	30.178 
16:40	50.1	50.1	50.1	60	36.8	0	2	248	0.00	30.178 
16:45	49.9	49.9	49.9	60	36.6	0	2	248	0.00	30.183 
16:50	49.8	49.8	49.8	61	36.9	0	2	248	0.00	30.183 
16:55	49.5	49.5	49.5	62	37.0	0	3	248	0.00	30.183 
17:00	49.2	49.2	49.2	62	36.7	1	2	248	0.00	30.190 
17:05	48.9	48.9	48.9	63	36.9	0	1	248	0.00	30.190 
17:10	48.6	48.6	48.6	64	37.0	0	1	248	0.00	30.190 
17:15	48.3	48.3	48.3	65	37.1	0	1	248	0.00	30.193 
17:20	47.9	47.9	47.9	67	37.5	0	1	248	0.00	30.193 
17:25	47.6	47.6	47.6	68	37.6	0	1	248	0.00	30.193 
17:30	47.1	47.1	47.1	69	37.5	0	3	248	0.00	30.198 
17:35	47.1	47.1	47.1	74	39.2	2	4	248	0.00	30.198 
17:40	47.0	47.0	47.0	76	39.8	1	4	248	0.00	30.198 
17:45	46.7	46.7	46.7	78	40.2	1	4	248	0.00	30.199 
17:50	46.4	46.4	46.4	79	40.2	0	3	248	0.00	30.199 
17:55	46.0	46.0	46.0	80	40.2	1	3	248	0.00	30.199 
18:00	45.5	45.5	45.5	81	40.0	1	4	248	0.00	30.209 
18:05	45.1	45.1	45.1	82	39.9	1	3	248	0.00	30.209 
18:10	44.6	44.6	44.6	82	39.4	1	3	248	0.00	30.209 
18:15	44.2	44.2	44.2	83	39.4	1	3	248	0.00	30.215 
18:20	43.6	43.6	43.6	84	39.1	1	4	248	0.00	30.215 
18:25	43.2	43.2	43.2	84	38.7	1	3	248	0.00	30.215 
18:30	42.9	42.9	42.9	85	38.7	0	2	248	0.00	30.220 
18:35	42.5	42.5	42.5	85	38.3	1	3	248	0.00	30.220 
18:40	42.2	42.2	42.2	86	38.3	1	4	248	0.00	30.220 
18:45	42.1	42.1	42.1	87	38.5	1	3	248	0.00	30.227 
18:50	41.8	41.8	41.8	87	38.2	3	5	248	0.00	30.227 
18:55	41.5	41.5	41.5	88	38.2	3	5	248	0.00	30.227 
19:00	41.3	41.3	41.3	88	38.0	2	4	270	0.00	30.231 
19:05	41.3	41.3	41.3	89	38.3	2	4	225	0.00	30.231 
19:10	41.5	41.5	41.5	89	38.5	2	5	225	0.00	30.231 
19:15	41.5	41.5	41.5	90	38.8	2	4	270	0.00	30.234 
19:20	41.5	41.5	41.5	90	38.8	3	6	270	0.00	30.234 
19:25	41.5	41.5	41.5	90	38.8	2	5	248	0.00	30.234 
19:30	41.5	41.5	41.5	91	39.1	1	3	270	0.00	30.238 
19:35	41.5	41.5	41.5	91	39.1	2	4	292	0.00	30.238 
19:40	41.5	41.5	41.5	91	39.1	2	6	270	0.00	30.238 
19:45	41.5	41.5	41.5	90	38.8	1	3	270	0.00	30.242 
19:50	41.3	41.3	41.3	90	38.6	1	3	270	0.00	30.242 
19:55	41.2	41.2	41.2	90	38.5	1	3	270	0.00	30.242 
20:00	41.1	41.1	41.1	90	38.4	2	4	248	0.00	30.237 
20:05	40.9	40.9	40.9	90	38.2	1	3	248	0.00	30.237 
20:10	40.8	40.8	40.8	90	38.1	1	4	248	0.00	30.237 
20:15	40.5	40.5	40.5	90	37.8	0	2	248	0.00	30.239 
20:20	40.3	40.3	40.3	90	37.6	0	1	248	0.00	30.239 
20:25	40.2	40.2	40.2	90	37.5	0	1	248	0.00	30.239 
20:30	40.1	40.1	40.1	90	37.4	0	1	248	0.00	30.244 
20:35	39.9	39.9	39.9	90	37.2	0	1	248	0.00	30.244 
20:40	39.8	39.8	39.8	91	37.4	0	1	248	0.00	30.244 
20:45	39.6	39.6	39.6	91	37.2	0	1	248	0.00	30.246 
20:50	39.5	39.5	39.5	91	37.1	0	0	---	0.00	30.246 
20:55	39.5	39.5	39.5	91	37.1	0	1	248	0.00	30.246 
21:00	39.3	39.3	39.3	91	36.9	0	1	248	0.00	30.249 
21:05	39.5	39.5	39.5	92	37.4	0	2	248	0.00	30.249 
21:10	39.5	39.5	39.5	92	37.4	0	2	248	0.00	30.249 
21:15	39.5	39.5	39.5	92	37.4	0	2	248	0.00	30.248 
21:20	39.5	39.5	39.5	92	37.4	0	1	248	0.00	30.248 
21:25	39.5	39.5	39.5	92	37.4	0	3	248	0.00	30.248 
21:30	39.6	39.6	39.6	92	37.5	0	2	248	0.00	30.247 
21:35	39.5	39.5	39.5	92	37.4	0	1	248	0.00	30.247 
21:40	39.5	39.5	39.5	92	37.4	0	0	---	0.00	30.247 
21:45	39.3	39.3	39.3	92	37.2	0	0	---	0.00	30.259 
21:50	39.1	39.1	39.1	92	37.0	0	1	248	0.00	30.259 
21:55	39.1	39.1	39.1	92	37.0	0	1	248	0.00	30.259 
22:00	39.1	39.1	39.1	92	37.0	0	2	248	0.00	30.258 
22:05	39.1	39.1	39.1	92	37.0	0	2	248	0.00	30.258 
22:10	39.1	39.1	39.1	93	37.2	0	2	248	0.00	30.258 
22:15	38.9	38.9	38.9	93	37.1	0	1	248	0.00	30.258 
22:20	38.9	38.9	38.9	93	37.1	0	1	248	0.00	30.258 
22:25	38.8	38.8	38.8	93	37.0	0	0	---	0.00	30.258 
22:30	38.6	38.6	38.6	93	36.8	0	0	---	0.00	30.257 
22:35	38.3	38.3	38.3	92	36.2	0	0	---	0.00	30.257 
22:40	38.0	38.0	38.0	93	36.2	0	0	---	0.00	30.257 
22:45	37.8	37.8	37.8	93	36.0	0	1	248	0.00	30.258 
22:50	37.9	37.9	37.9	93	36.1	0	1	248	0.00	30.258 
22:55	37.9	37.9	37.9	93	36.1	0	1	248	0.00	30.258 
23:00	37.9	37.9	37.9	93	36.1	0	1	248	0.00	30.260 
23:05	38.0	38.0	38.0	93	36.2	0	2	248	0.00	30.260 
23:10	38.2	38.2	38.2	93	36.4	0	2	248	0.00	30.260 
23:15	38.2	38.2	38.2	94	36.6	0	2	248	0.00	30.260 
23:20	38.2	38.2	38.2	94	36.6	0	2	248	0.00	30.260 
23:25	38.2	38.2	38.2	94	36.6	0	2	248	0.00	30.260 
23:30	38.2	38.2	38.2	94	36.6	0	2	248	0.00	30.262 
23:35	38.2	38.2	38.2	94	36.6	1	3	248	0.00	30.262 
23:40	38.2	38.2	38.2	94	36.6	1	4	248	0.00	30.262 
23:45	38.0	38.0	38.0	94	36.4	0	1	248	0.00	30.264 
23:50	38.0	38.0	38.0	94	36.4	1	2	248	0.00	30.264 
23:55	37.9	37.9	37.9	94	36.3	1	4	248	0.00	30.264 

CoCoRaHS
IN-AL-39
A2 Web Hosting
Creative Commons License
GoDaddy
search engine by freefind advanced

loaded 2018-11-16 23:14:44 • last modified 2010-11-18 10:43:29
Privacy PolicyDisclaimer
• wx.awcolley.com is powered by PmWiki v.2002016 •
• all content (unless otherwise noted) © 2018 A W Colley